Bischofshofen, Austria
Current Conditions -  °F | °C
As of 3:50 AM on Thursday 23 Oct 2014 (Local Time) from LOWS Reporting Station
Moderate Rain Moderate Rain  
Wind Chill: 36°   Ceiling: 2000
Heat Index: 43°   Visibility: 5mi
Dew Point: 39°   Wind: 13mph
Humidity: 87%   Direction: 270°W
Pressure: 29.88"   Gusts: NA
Location:  47.42°N, 13.21°E
Report Text: LOWS 230150Z 27011KT 8000 RA FEW012 BKN020 06/04 Q1012
Loading
Personal Weather Stations






























Interactive Weather Map
Tropical Storm Tracking
New forecast layout! Learn more

10-Day Weather Forecast

Advertisements
Track Severe Weather on mobile